sensor_id;sensor_type;location;lat;lon;timestamp;P1;durP1;ratioP1;P2;durP2;ratioP2
68310;SDS011;55157;51.036;17.058;2022-08-03T00:00:33;6.32;;;4.13;;
68310;SDS011;55157;51.036;17.058;2022-08-03T00:02:58;6.55;;;4.45;;
68310;SDS011;55157;51.036;17.058;2022-08-03T00:05:23;9.27;;;4.38;;
68310;SDS011;55157;51.036;17.058;2022-08-03T00:07:50;6.25;;;4.63;;
68310;SDS011;55157;51.036;17.058;2022-08-03T00:10:15;7.72;;;4.35;;
68310;SDS011;55157;51.036;17.058;2022-08-03T00:12:41;12.30;;;3.90;;
68310;SDS011;55157;51.036;17.058;2022-08-03T00:15:06;5.13;;;3.75;;
68310;SDS011;55157;51.036;17.058;2022-08-03T00:17:32;8.07;;;4.85;;
68310;SDS011;55157;51.036;17.058;2022-08-03T00:19:57;8.68;;;4.40;;
68310;SDS011;55157;51.036;17.058;2022-08-03T00:22:22;8.85;;;4.25;;
68310;SDS011;55157;51.036;17.058;2022-08-03T00:24:49;7.90;;;4.88;;
68310;SDS011;55157;51.036;17.058;2022-08-03T00:27:14;11.05;;;4.82;;
68310;SDS011;55157;51.036;17.058;2022-08-03T00:29:39;9.77;;;5.47;;
68310;SDS011;55157;51.036;17.058;2022-08-03T00:32:05;8.30;;;4.78;;
68310;SDS011;55157;51.036;17.058;2022-08-03T00:34:30;6.97;;;4.80;;
68310;SDS011;55157;51.036;17.058;2022-08-03T00:36:55;13.60;;;4.47;;
68310;SDS011;55157;51.036;17.058;2022-08-03T00:39:20;7.90;;;4.43;;
68310;SDS011;55157;51.036;17.058;2022-08-03T00:41:47;8.43;;;4.38;;
68310;SDS011;55157;51.036;17.058;2022-08-03T00:44:12;10.88;;;4.78;;
68310;SDS011;55157;51.036;17.058;2022-08-03T00:46:38;8.80;;;5.25;;
68310;SDS011;55157;51.036;17.058;2022-08-03T00:49:03;6.82;;;4.72;;
68310;SDS011;55157;51.036;17.058;2022-08-03T00:51:28;6.65;;;4.43;;
68310;SDS011;55157;51.036;17.058;2022-08-03T00:53:53;58.22;;;7.28;;
68310;SDS011;55157;51.036;17.058;2022-08-03T00:56:19;76.47;;;9.25;;
68310;SDS011;55157;51.036;17.058;2022-08-03T00:58:45;47.65;;;7.63;;
68310;SDS011;55157;51.036;17.058;2022-08-03T01:01:11;30.05;;;6.88;;
68310;SDS011;55157;51.036;17.058;2022-08-03T01:03:36;22.92;;;4.47;;
68310;SDS011;55157;51.036;17.058;2022-08-03T01:06:03;11.27;;;5.13;;
68310;SDS011;55157;51.036;17.058;2022-08-03T01:08:32;10.52;;;4.57;;
68310;SDS011;55157;51.036;17.058;2022-08-03T01:11:02;8.40;;;4.75;;
68310;SDS011;55157;51.036;17.058;2022-08-03T01:13:33;11.02;;;4.72;;
68310;SDS011;55157;51.036;17.058;2022-08-03T01:16:04;7.63;;;4.82;;
68310;SDS011;55157;51.036;17.058;2022-08-03T01:18:31;10.27;;;4.70;;
68310;SDS011;55157;51.036;17.058;2022-08-03T01:20:59;7.88;;;4.03;;
68310;SDS011;55157;51.036;17.058;2022-08-03T01:23:34;7.05;;;5.47;;
68310;SDS011;55157;51.036;17.058;2022-08-03T01:26:20;10.15;;;5.30;;
68310;SDS011;55157;51.036;17.058;2022-08-03T01:29:00;11.27;;;5.40;;
68310;SDS011;55157;51.036;17.058;2022-08-03T01:31:30;11.05;;;5.22;;
68310;SDS011;55157;51.036;17.058;2022-08-03T01:33:58;8.00;;;5.45;;
68310;SDS011;55157;51.036;17.058;2022-08-03T01:36:28;10.20;;;6.00;;
68310;SDS011;55157;51.036;17.058;2022-08-03T01:38:59;10.27;;;6.85;;
68310;SDS011;55157;51.036;17.058;2022-08-03T01:41:28;9.93;;;5.55;;
68310;SDS011;55157;51.036;17.058;2022-08-03T01:43:53;13.23;;;5.32;;
68310;SDS011;55157;51.036;17.058;2022-08-03T01:46:20;12.70;;;5.57;;
68310;SDS011;55157;51.036;17.058;2022-08-03T01:48:48;10.15;;;5.60;;
68310;SDS011;55157;51.036;17.058;2022-08-03T01:51:14;10.38;;;5.82;;
68310;SDS011;55157;51.036;17.058;2022-08-03T01:53:40;8.80;;;5.40;;
68310;SDS011;55157;51.036;17.058;2022-08-03T01:56:05;9.63;;;5.88;;
68310;SDS011;55157;51.036;17.058;2022-08-03T01:58:30;7.70;;;5.28;;
68310;SDS011;55157;51.036;17.058;2022-08-03T02:00:56;8.15;;;5.70;;
68310;SDS011;55157;51.036;17.058;2022-08-03T02:03:22;15.10;;;6.15;;
68310;SDS011;55157;51.036;17.058;2022-08-03T02:05:49;8.88;;;5.10;;
68310;SDS011;55157;51.036;17.058;2022-08-03T02:08:16;10.68;;;6.07;;
68310;SDS011;55157;51.036;17.058;2022-08-03T02:10:42;13.43;;;6.32;;
68310;SDS011;55157;51.036;17.058;2022-08-03T02:13:08;11.40;;;5.53;;
68310;SDS011;55157;51.036;17.058;2022-08-03T02:15:35;7.68;;;5.55;;
68310;SDS011;55157;51.036;17.058;2022-08-03T02:18:00;13.95;;;6.25;;
68310;SDS011;55157;51.036;17.058;2022-08-03T02:20:28;14.48;;;5.47;;
68310;SDS011;55157;51.036;17.058;2022-08-03T02:22:56;12.73;;;6.07;;
68310;SDS011;55157;51.036;17.058;2022-08-03T02:25:21;13.52;;;6.03;;
68310;SDS011;55157;51.036;17.058;2022-08-03T02:27:48;14.70;;;6.60;;
68310;SDS011;55157;51.036;17.058;2022-08-03T02:30:15;14.80;;;5.70;;
68310;SDS011;55157;51.036;17.058;2022-08-03T02:32:41;14.25;;;5.63;;
68310;SDS011;55157;51.036;17.058;2022-08-03T02:35:09;15.48;;;5.38;;
68310;SDS011;55157;51.036;17.058;2022-08-03T02:37:36;9.50;;;5.15;;
68310;SDS011;55157;51.036;17.058;2022-08-03T02:40:06;9.43;;;5.20;;
68310;SDS011;55157;51.036;17.058;2022-08-03T02:42:33;8.68;;;5.15;;
68310;SDS011;55157;51.036;17.058;2022-08-03T02:45:01;11.35;;;6.65;;
68310;SDS011;55157;51.036;17.058;2022-08-03T02:47:27;12.23;;;5.72;;
68310;SDS011;55157;51.036;17.058;2022-08-03T02:49:53;9.32;;;5.85;;
68310;SDS011;55157;51.036;17.058;2022-08-03T02:52:19;10.85;;;5.47;;
68310;SDS011;55157;51.036;17.058;2022-08-03T02:54:45;8.70;;;5.93;;
68310;SDS011;55157;51.036;17.058;2022-08-03T02:57:13;11.30;;;6.05;;
68310;SDS011;55157;51.036;17.058;2022-08-03T02:59:39;12.57;;;6.00;;
68310;SDS011;55157;51.036;17.058;2022-08-03T03:02:04;12.30;;;6.20;;
68310;SDS011;55157;51.036;17.058;2022-08-03T03:04:30;10.50;;;6.68;;
68310;SDS011;55157;51.036;17.058;2022-08-03T03:06:56;18.98;;;6.05;;
68310;SDS011;55157;51.036;17.058;2022-08-03T03:09:22;8.95;;;5.88;;
68310;SDS011;55157;51.036;17.058;2022-08-03T03:11:47;8.02;;;5.85;;
68310;SDS011;55157;51.036;17.058;2022-08-03T03:14:14;12.65;;;5.57;;
68310;SDS011;55157;51.036;17.058;2022-08-03T03:16:40;10.60;;;5.32;;
68310;SDS011;55157;51.036;17.058;2022-08-03T03:19:05;10.98;;;6.07;;
68310;SDS011;55157;51.036;17.058;2022-08-03T03:21:31;9.00;;;6.07;;
68310;SDS011;55157;51.036;17.058;2022-08-03T03:23:57;7.38;;;5.57;;
68310;SDS011;55157;51.036;17.058;2022-08-03T03:26:23;10.80;;;5.15;;
68310;SDS011;55157;51.036;17.058;2022-08-03T03:28:48;7.45;;;5.57;;
68310;SDS011;55157;51.036;17.058;2022-08-03T03:31:15;9.23;;;6.03;;
68310;SDS011;55157;51.036;17.058;2022-08-03T03:33:40;11.98;;;6.25;;
68310;SDS011;55157;51.036;17.058;2022-08-03T03:36:06;13.25;;;5.95;;
68310;SDS011;55157;51.036;17.058;2022-08-03T03:38:31;8.40;;;5.53;;
68310;SDS011;55157;51.036;17.058;2022-08-03T03:40:56;11.68;;;5.70;;
68310;SDS011;55157;51.036;17.058;2022-08-03T03:43:22;12.43;;;5.20;;
68310;SDS011;55157;51.036;17.058;2022-08-03T03:45:48;9.68;;;5.82;;
68310;SDS011;55157;51.036;17.058;2022-08-03T03:48:14;12.07;;;5.93;;
68310;SDS011;55157;51.036;17.058;2022-08-03T03:50:40;12.70;;;5.95;;
68310;SDS011;55157;51.036;17.058;2022-08-03T03:53:07;11.00;;;5.97;;
68310;SDS011;55157;51.036;17.058;2022-08-03T03:55:32;13.80;;;5.85;;
68310;SDS011;55157;51.036;17.058;2022-08-03T03:57:58;8.13;;;5.68;;
68310;SDS011;55157;51.036;17.058;2022-08-03T04:00:23;8.27;;;5.78;;
68310;SDS011;55157;51.036;17.058;2022-08-03T04:02:48;9.32;;;5.80;;
68310;SDS011;55157;51.036;17.058;2022-08-03T04:05:15;12.77;;;6.10;;
68310;SDS011;55157;51.036;17.058;2022-08-03T04:07:42;19.88;;;6.22;;
68310;SDS011;55157;51.036;17.058;2022-08-03T04:10:12;10.77;;;5.53;;
68310;SDS011;55157;51.036;17.058;2022-08-03T04:12:37;9.18;;;5.47;;
68310;SDS011;55157;51.036;17.058;2022-08-03T04:15:03;13.80;;;6.15;;
68310;SDS011;55157;51.036;17.058;2022-08-03T04:17:29;14.90;;;5.88;;
68310;SDS011;55157;51.036;17.058;2022-08-03T04:19:55;10.95;;;5.68;;
68310;SDS011;55157;51.036;17.058;2022-08-03T04:22:24;11.18;;;5.93;;
68310;SDS011;55157;51.036;17.058;2022-08-03T04:24:51;13.43;;;6.05;;
68310;SDS011;55157;51.036;17.058;2022-08-03T04:27:19;8.20;;;5.80;;
68310;SDS011;55157;51.036;17.058;2022-08-03T04:29:46;10.32;;;5.30;;
68310;SDS011;55157;51.036;17.058;2022-08-03T04:32:12;10.02;;;5.50;;
68310;SDS011;55157;51.036;17.058;2022-08-03T04:34:37;15.27;;;5.82;;
68310;SDS011;55157;51.036;17.058;2022-08-03T04:37:04;14.40;;;6.47;;
68310;SDS011;55157;51.036;17.058;2022-08-03T04:39:33;9.40;;;6.20;;
68310;SDS011;55157;51.036;17.058;2022-08-03T04:42:00;13.38;;;5.57;;
68310;SDS011;55157;51.036;17.058;2022-08-03T04:44:26;15.38;;;7.07;;
68310;SDS011;55157;51.036;17.058;2022-08-03T04:46:52;21.17;;;6.53;;
68310;SDS011;55157;51.036;17.058;2022-08-03T04:49:17;10.60;;;6.15;;
68310;SDS011;55157;51.036;17.058;2022-08-03T04:51:43;22.70;;;6.07;;
68310;SDS011;55157;51.036;17.058;2022-08-03T04:54:10;20.48;;;6.60;;
68310;SDS011;55157;51.036;17.058;2022-08-03T04:56:39;19.35;;;6.22;;
68310;SDS011;55157;51.036;17.058;2022-08-03T04:59:05;21.70;;;7.65;;
68310;SDS011;55157;51.036;17.058;2022-08-03T05:01:30;31.67;;;6.35;;
68310;SDS011;55157;51.036;17.058;2022-08-03T05:03:55;16.70;;;6.72;;
68310;SDS011;55157;51.036;17.058;2022-08-03T05:06:21;22.52;;;7.13;;
68310;SDS011;55157;51.036;17.058;2022-08-03T05:08:46;15.02;;;5.82;;
68310;SDS011;55157;51.036;17.058;2022-08-03T05:11:11;8.93;;;6.10;;
68310;SDS011;55157;51.036;17.058;2022-08-03T05:13:38;6.15;;;5.38;;
68310;SDS011;55157;51.036;17.058;2022-08-03T05:16:03;13.20;;;6.35;;
68310;SDS011;55157;51.036;17.058;2022-08-03T05:18:29;6.15;;;5.55;;
68310;SDS011;55157;51.036;17.058;2022-08-03T05:20:54;15.65;;;5.78;;
68310;SDS011;55157;51.036;17.058;2022-08-03T05:23:19;12.57;;;6.50;;
68310;SDS011;55157;51.036;17.058;2022-08-03T05:25:44;8.85;;;5.32;;
68310;SDS011;55157;51.036;17.058;2022-08-03T05:28:09;11.82;;;6.30;;
68310;SDS011;55157;51.036;17.058;2022-08-03T05:30:37;7.47;;;5.53;;
68310;SDS011;55157;51.036;17.058;2022-08-03T05:33:02;9.45;;;6.13;;
68310;SDS011;55157;51.036;17.058;2022-08-03T05:35:27;13.32;;;6.65;;
68310;SDS011;55157;51.036;17.058;2022-08-03T05:37:53;7.35;;;5.35;;
68310;SDS011;55157;51.036;17.058;2022-08-03T05:40:18;8.95;;;5.20;;
68310;SDS011;55157;51.036;17.058;2022-08-03T05:42:43;10.80;;;5.38;;
68310;SDS011;55157;51.036;17.058;2022-08-03T05:45:09;13.27;;;5.95;;
68310;SDS011;55157;51.036;17.058;2022-08-03T05:47:36;14.65;;;5.20;;
68310;SDS011;55157;51.036;17.058;2022-08-03T05:50:01;11.13;;;6.00;;
68310;SDS011;55157;51.036;17.058;2022-08-03T05:52:27;12.93;;;5.57;;
68310;SDS011;55157;51.036;17.058;2022-08-03T05:54:52;8.95;;;5.20;;
68310;SDS011;55157;51.036;17.058;2022-08-03T05:57:17;11.18;;;5.35;;
68310;SDS011;55157;51.036;17.058;2022-08-03T05:59:42;13.85;;;5.82;;
68310;SDS011;55157;51.036;17.058;2022-08-03T06:02:07;6.25;;;4.95;;
68310;SDS011;55157;51.036;17.058;2022-08-03T06:04:34;8.52;;;5.28;;
68310;SDS011;55157;51.036;17.058;2022-08-03T06:06:59;9.10;;;4.55;;
68310;SDS011;55157;51.036;17.058;2022-08-03T06:09:25;15.45;;;5.75;;
68310;SDS011;55157;51.036;17.058;2022-08-03T06:11:50;7.05;;;4.53;;
68310;SDS011;55157;51.036;17.058;2022-08-03T06:14:15;9.98;;;4.82;;
68310;SDS011;55157;51.036;17.058;2022-08-03T06:16:40;7.85;;;4.50;;
68310;SDS011;55157;51.036;17.058;2022-08-03T06:19:05;6.90;;;4.18;;
68310;SDS011;55157;51.036;17.058;2022-08-03T06:21:32;9.05;;;4.40;;
68310;SDS011;55157;51.036;17.058;2022-08-03T06:23:57;7.35;;;4.20;;
68310;SDS011;55157;51.036;17.058;2022-08-03T06:26:23;7.78;;;4.68;;
68310;SDS011;55157;51.036;17.058;2022-08-03T06:28:49;6.68;;;3.83;;
68310;SDS011;55157;51.036;17.058;2022-08-03T06:31:14;7.28;;;4.38;;
68310;SDS011;55157;51.036;17.058;2022-08-03T06:33:39;9.95;;;4.13;;
68310;SDS011;55157;51.036;17.058;2022-08-03T06:36:04;10.57;;;3.90;;
68310;SDS011;55157;51.036;17.058;2022-08-03T06:38:31;18.35;;;4.88;;
68310;SDS011;55157;51.036;17.058;2022-08-03T06:40:56;6.38;;;2.97;;
68310;SDS011;55157;51.036;17.058;2022-08-03T06:43:22;13.23;;;3.17;;
68310;SDS011;55157;51.036;17.058;2022-08-03T06:45:47;9.52;;;3.42;;
68310;SDS011;55157;51.036;17.058;2022-08-03T06:48:12;3.40;;;3.10;;
68310;SDS011;55157;51.036;17.058;2022-08-03T06:50:38;6.15;;;3.50;;
68310;SDS011;55157;51.036;17.058;2022-08-03T06:53:03;15.43;;;3.25;;
68310;SDS011;55157;51.036;17.058;2022-08-03T06:55:30;3.55;;;3.00;;
68310;SDS011;55157;51.036;17.058;2022-08-03T06:57:56;6.78;;;2.95;;
68310;SDS011;55157;51.036;17.058;2022-08-03T07:00:21;8.57;;;2.90;;
68310;SDS011;55157;51.036;17.058;2022-08-03T07:02:47;3.80;;;3.15;;
68310;SDS011;55157;51.036;17.058;2022-08-03T07:05:12;9.02;;;2.83;;
68310;SDS011;55157;51.036;17.058;2022-08-03T07:07:38;15.00;;;3.67;;
68310;SDS011;55157;51.036;17.058;2022-08-03T07:10:03;4.63;;;3.15;;
68310;SDS011;55157;51.036;17.058;2022-08-03T07:12:30;9.30;;;2.80;;
68310;SDS011;55157;51.036;17.058;2022-08-03T07:14:56;5.68;;;2.80;;
68310;SDS011;55157;51.036;17.058;2022-08-03T07:17:22;5.95;;;2.60;;
68310;SDS011;55157;51.036;17.058;2022-08-03T07:19:47;5.40;;;2.50;;
68310;SDS011;55157;51.036;17.058;2022-08-03T07:22:12;6.45;;;2.88;;
68310;SDS011;55157;51.036;17.058;2022-08-03T07:24:37;5.03;;;2.63;;
68310;SDS011;55157;51.036;17.058;2022-08-03T07:27:03;5.75;;;2.90;;
68310;SDS011;55157;51.036;17.058;2022-08-03T07:29:30;4.38;;;2.53;;
68310;SDS011;55157;51.036;17.058;2022-08-03T07:31:55;17.27;;;3.80;;
68310;SDS011;55157;51.036;17.058;2022-08-03T07:34:20;8.63;;;2.83;;
68310;SDS011;55157;51.036;17.058;2022-08-03T07:36:46;3.38;;;2.30;;
68310;SDS011;55157;51.036;17.058;2022-08-03T07:39:11;5.50;;;2.30;;
68310;SDS011;55157;51.036;17.058;2022-08-03T07:41:36;2.90;;;2.15;;
68310;SDS011;55157;51.036;17.058;2022-08-03T07:44:01;2.38;;;1.90;;
68310;SDS011;55157;51.036;17.058;2022-08-03T07:46:28;10.10;;;3.08;;
68310;SDS011;55157;51.036;17.058;2022-08-03T07:48:53;4.15;;;2.50;;
68310;SDS011;55157;51.036;17.058;2022-08-03T07:51:19;2.53;;;2.10;;
68310;SDS011;55157;51.036;17.058;2022-08-03T07:53:44;2.90;;;1.90;;
68310;SDS011;55157;51.036;17.058;2022-08-03T07:56:09;5.75;;;2.30;;
68310;SDS011;55157;51.036;17.058;2022-08-03T07:58:34;2.70;;;2.03;;
68310;SDS011;55157;51.036;17.058;2022-08-03T08:01:00;6.10;;;1.92;;
68310;SDS011;55157;51.036;17.058;2022-08-03T08:03:26;5.40;;;2.33;;
68310;SDS011;55157;51.036;17.058;2022-08-03T08:05:52;9.40;;;1.92;;
68310;SDS011;55157;51.036;17.058;2022-08-03T08:08:17;3.00;;;1.95;;
68310;SDS011;55157;51.036;17.058;2022-08-03T08:10:43;3.67;;;1.80;;
68310;SDS011;55157;51.036;17.058;2022-08-03T08:13:08;4.83;;;1.80;;
68310;SDS011;55157;51.036;17.058;2022-08-03T08:15:33;7.97;;;2.40;;
68310;SDS011;55157;51.036;17.058;2022-08-03T08:17:59;9.57;;;2.00;;
68310;SDS011;55157;51.036;17.058;2022-08-03T08:20:26;4.55;;;2.20;;
68310;SDS011;55157;51.036;17.058;2022-08-03T08:22:53;4.88;;;1.92;;
68310;SDS011;55157;51.036;17.058;2022-08-03T08:25:19;11.18;;;2.30;;
68310;SDS011;55157;51.036;17.058;2022-08-03T08:27:45;4.30;;;2.83;;
68310;SDS011;55157;51.036;17.058;2022-08-03T08:30:11;4.10;;;2.10;;
68310;SDS011;55157;51.036;17.058;2022-08-03T08:32:37;5.22;;;1.70;;
68310;SDS011;55157;51.036;17.058;2022-08-03T08:35:02;13.40;;;2.20;;
68310;SDS011;55157;51.036;17.058;2022-08-03T08:37:29;6.60;;;2.40;;
68310;SDS011;55157;51.036;17.058;2022-08-03T08:39:54;1.92;;;1.73;;
68310;SDS011;55157;51.036;17.058;2022-08-03T08:42:20;8.02;;;2.00;;
68310;SDS011;55157;51.036;17.058;2022-08-03T08:44:45;6.25;;;1.75;;
68310;SDS011;55157;51.036;17.058;2022-08-03T08:47:10;5.37;;;1.67;;
68310;SDS011;55157;51.036;17.058;2022-08-03T08:49:36;3.78;;;1.90;;
68310;SDS011;55157;51.036;17.058;2022-08-03T08:52:03;5.43;;;1.45;;
68310;SDS011;55157;51.036;17.058;2022-08-03T08:54:30;11.43;;;2.25;;
68310;SDS011;55157;51.036;17.058;2022-08-03T08:56:56;2.08;;;1.40;;
68310;SDS011;55157;51.036;17.058;2022-08-03T08:59:25;2.08;;;1.50;;
68310;SDS011;55157;51.036;17.058;2022-08-03T09:01:54;2.95;;;1.50;;
68310;SDS011;55157;51.036;17.058;2022-08-03T09:04:20;2.42;;;1.60;;
68310;SDS011;55157;51.036;17.058;2022-08-03T09:06:45;2.92;;;1.48;;
68310;SDS011;55157;51.036;17.058;2022-08-03T09:09:11;8.02;;;1.85;;
68310;SDS011;55157;51.036;17.058;2022-08-03T09:11:37;4.07;;;1.50;;
68310;SDS011;55157;51.036;17.058;2022-08-03T09:14:06;1.63;;;1.35;;
68310;SDS011;55157;51.036;17.058;2022-08-03T09:16:31;4.03;;;1.40;;
68310;SDS011;55157;51.036;17.058;2022-08-03T09:18:57;1.93;;;1.33;;
68310;SDS011;55157;51.036;17.058;2022-08-03T09:21:34;7.13;;;1.52;;
68310;SDS011;55157;51.036;17.058;2022-08-03T09:24:00;3.20;;;1.33;;
68310;SDS011;55157;51.036;17.058;2022-08-03T09:26:27;3.05;;;1.45;;
68310;SDS011;55157;51.036;17.058;2022-08-03T09:28:57;4.43;;;1.45;;
68310;SDS011;55157;51.036;17.058;2022-08-03T09:31:32;2.33;;;1.17;;
68310;SDS011;55157;51.036;17.058;2022-08-03T09:33:59;9.07;;;1.70;;
68310;SDS011;55157;51.036;17.058;2022-08-03T09:36:35;1.63;;;1.38;;
68310;SDS011;55157;51.036;17.058;2022-08-03T09:39:00;1.30;;;1.20;;
68310;SDS011;55157;51.036;17.058;2022-08-03T09:41:26;3.15;;;1.20;;
68310;SDS011;55157;51.036;17.058;2022-08-03T09:43:51;8.50;;;1.58;;
68310;SDS011;55157;51.036;17.058;2022-08-03T09:46:17;2.47;;;1.90;;
68310;SDS011;55157;51.036;17.058;2022-08-03T09:48:43;4.95;;;1.80;;
68310;SDS011;55157;51.036;17.058;2022-08-03T09:51:08;3.30;;;1.20;;
68310;SDS011;55157;51.036;17.058;2022-08-03T09:53:40;11.80;;;1.40;;
68310;SDS011;55157;51.036;17.058;2022-08-03T09:56:06;4.60;;;1.40;;
68310;SDS011;55157;51.036;17.058;2022-08-03T09:58:31;4.03;;;1.38;;
68310;SDS011;55157;51.036;17.058;2022-08-03T10:00:57;4.43;;;1.60;;
68310;SDS011;55157;51.036;17.058;2022-08-03T10:03:25;2.70;;;1.27;;
68310;SDS011;55157;51.036;17.058;2022-08-03T10:05:50;4.60;;;1.60;;
68310;SDS011;55157;51.036;17.058;2022-08-03T10:08:16;5.03;;;2.10;;
68310;SDS011;55157;51.036;17.058;2022-08-03T10:10:42;2.10;;;1.30;;
68310;SDS011;55157;51.036;17.058;2022-08-03T10:13:07;5.05;;;1.23;;
68310;SDS011;55157;51.036;17.058;2022-08-03T10:15:33;5.13;;;1.17;;
68310;SDS011;55157;51.036;17.058;2022-08-03T10:17:58;3.15;;;1.48;;
68310;SDS011;55157;51.036;17.058;2022-08-03T10:20:25;9.70;;;1.40;;
68310;SDS011;55157;51.036;17.058;2022-08-03T10:22:51;7.38;;;1.30;;
68310;SDS011;55157;51.036;17.058;2022-08-03T10:25:16;5.72;;;1.73;;
68310;SDS011;55157;51.036;17.058;2022-08-03T10:27:43;1.38;;;1.15;;
68310;SDS011;55157;51.036;17.058;2022-08-03T10:30:11;5.60;;;1.38;;
68310;SDS011;55157;51.036;17.058;2022-08-03T10:32:37;2.53;;;1.00;;
68310;SDS011;55157;51.036;17.058;2022-08-03T10:35:04;2.15;;;1.60;;
68310;SDS011;55157;51.036;17.058;2022-08-03T10:37:31;4.47;;;1.60;;
68310;SDS011;55157;51.036;17.058;2022-08-03T10:39:58;2.47;;;1.40;;
68310;SDS011;55157;51.036;17.058;2022-08-03T10:42:24;2.95;;;1.20;;
68310;SDS011;55157;51.036;17.058;2022-08-03T10:44:52;2.33;;;1.40;;
68310;SDS011;55157;51.036;17.058;2022-08-03T10:47:19;1.80;;;1.00;;
68310;SDS011;55157;51.036;17.058;2022-08-03T10:49:46;1.20;;;1.10;;
68310;SDS011;55157;51.036;17.058;2022-08-03T10:52:11;2.15;;;1.20;;
68310;SDS011;55157;51.036;17.058;2022-08-03T10:54:39;2.60;;;1.20;;
68310;SDS011;55157;51.036;17.058;2022-08-03T10:57:04;3.65;;;0.90;;
68310;SDS011;55157;51.036;17.058;2022-08-03T11:02:13;2.92;;;1.40;;
68310;SDS011;55157;51.036;17.058;2022-08-03T11:04:39;5.78;;;1.25;;
68310;SDS011;55157;51.036;17.058;2022-08-03T11:07:17;2.63;;;1.13;;
68310;SDS011;55157;51.036;17.058;2022-08-03T11:09:44;4.80;;;1.10;;
68310;SDS011;55157;51.036;17.058;2022-08-03T11:12:19;2.45;;;1.20;;
68310;SDS011;55157;51.036;17.058;2022-08-03T11:14:45;5.30;;;1.10;;
68310;SDS011;55157;51.036;17.058;2022-08-03T11:17:10;3.63;;;1.20;;
68310;SDS011;55157;51.036;17.058;2022-08-03T11:19:41;10.40;;;1.20;;
68310;SDS011;55157;51.036;17.058;2022-08-03T11:22:07;3.20;;;1.50;;
68310;SDS011;55157;51.036;17.058;2022-08-03T11:27:23;2.90;;;1.27;;
68310;SDS011;55157;51.036;17.058;2022-08-03T11:29:58;13.63;;;1.00;;
68310;SDS011;55157;51.036;17.058;2022-08-03T11:35:08;3.97;;;1.00;;
68310;SDS011;55157;51.036;17.058;2022-08-03T11:37:34;1.40;;;1.02;;
68310;SDS011;55157;51.036;17.058;2022-08-03T11:39:59;3.33;;;0.93;;
68310;SDS011;55157;51.036;17.058;2022-08-03T11:45:07;1.45;;;1.00;;
68310;SDS011;55157;51.036;17.058;2022-08-03T11:47:34;6.07;;;0.90;;
68310;SDS011;55157;51.036;17.058;2022-08-03T11:50:01;1.83;;;1.20;;
68310;SDS011;55157;51.036;17.058;2022-08-03T11:52:27;1.67;;;1.00;;
68310;SDS011;55157;51.036;17.058;2022-08-03T11:54:57;3.57;;;1.20;;
68310;SDS011;55157;51.036;17.058;2022-08-03T11:57:27;3.42;;;1.10;;
68310;SDS011;55157;51.036;17.058;2022-08-03T11:59:52;2.75;;;1.10;;
68310;SDS011;55157;51.036;17.058;2022-08-03T12:02:19;2.53;;;0.80;;
68310;SDS011;55157;51.036;17.058;2022-08-03T12:04:50;2.90;;;1.20;;
68310;SDS011;55157;51.036;17.058;2022-08-03T12:07:15;3.92;;;1.10;;
68310;SDS011;55157;51.036;17.058;2022-08-03T12:09:41;4.13;;;1.17;;
68310;SDS011;55157;51.036;17.058;2022-08-03T12:12:06;3.20;;;1.00;;
68310;SDS011;55157;51.036;17.058;2022-08-03T12:14:31;3.72;;;1.10;;
68310;SDS011;55157;51.036;17.058;2022-08-03T12:16:56;6.43;;;1.67;;
68310;SDS011;55157;51.036;17.058;2022-08-03T12:19:23;4.53;;;1.27;;
68310;SDS011;55157;51.036;17.058;2022-08-03T12:21:49;1.55;;;0.98;;
68310;SDS011;55157;51.036;17.058;2022-08-03T12:24:14;4.22;;;1.08;;
68310;SDS011;55157;51.036;17.058;2022-08-03T12:26:42;2.00;;;1.13;;
68310;SDS011;55157;51.036;17.058;2022-08-03T12:29:07;4.30;;;1.15;;
68310;SDS011;55157;51.036;17.058;2022-08-03T12:31:32;1.57;;;1.10;;
68310;SDS011;55157;51.036;17.058;2022-08-03T12:33:58;5.93;;;1.23;;
68310;SDS011;55157;51.036;17.058;2022-08-03T12:36:25;8.30;;;1.60;;
68310;SDS011;55157;51.036;17.058;2022-08-03T12:38:53;8.68;;;1.27;;
68310;SDS011;55157;51.036;17.058;2022-08-03T12:41:25;5.15;;;1.20;;
68310;SDS011;55157;51.036;17.058;2022-08-03T12:43:51;3.22;;;1.17;;
68310;SDS011;55157;51.036;17.058;2022-08-03T12:46:16;7.03;;;1.07;;
68310;SDS011;55157;51.036;17.058;2022-08-03T12:48:58;2.95;;;1.35;;
68310;SDS011;55157;51.036;17.058;2022-08-03T12:51:23;7.18;;;1.20;;
68310;SDS011;55157;51.036;17.058;2022-08-03T12:53:52;3.78;;;1.20;;
68310;SDS011;55157;51.036;17.058;2022-08-03T12:56:17;2.78;;;1.35;;
68310;SDS011;55157;51.036;17.058;2022-08-03T12:58:42;5.67;;;1.07;;
68310;SDS011;55157;51.036;17.058;2022-08-03T13:01:07;3.30;;;1.53;;
68310;SDS011;55157;51.036;17.058;2022-08-03T13:03:38;1.30;;;1.00;;
68310;SDS011;55157;51.036;17.058;2022-08-03T13:06:09;9.18;;;1.80;;
68310;SDS011;55157;51.036;17.058;2022-08-03T13:08:34;3.15;;;1.08;;
68310;SDS011;55157;51.036;17.058;2022-08-03T13:11:12;3.90;;;1.00;;
68310;SDS011;55157;51.036;17.058;2022-08-03T13:13:41;7.60;;;1.43;;
68310;SDS011;55157;51.036;17.058;2022-08-03T13:16:06;1.87;;;1.27;;
68310;SDS011;55157;51.036;17.058;2022-08-03T13:18:31;1.63;;;1.00;;
68310;SDS011;55157;51.036;17.058;2022-08-03T13:20:56;4.73;;;1.17;;
68310;SDS011;55157;51.036;17.058;2022-08-03T13:23:22;3.00;;;1.40;;
68310;SDS011;55157;51.036;17.058;2022-08-03T13:25:47;2.57;;;1.00;;
68310;SDS011;55157;51.036;17.058;2022-08-03T13:28:14;2.93;;;1.10;;
68310;SDS011;55157;51.036;17.058;2022-08-03T13:30:39;6.28;;;1.20;;
68310;SDS011;55157;51.036;17.058;2022-08-03T13:33:04;2.50;;;1.17;;
68310;SDS011;55157;51.036;17.058;2022-08-03T13:35:29;2.80;;;1.00;;
68310;SDS011;55157;51.036;17.058;2022-08-03T13:37:55;3.90;;;1.30;;
68310;SDS011;55157;51.036;17.058;2022-08-03T13:40:20;2.03;;;1.00;;
68310;SDS011;55157;51.036;17.058;2022-08-03T13:42:45;2.40;;;1.40;;
68310;SDS011;55157;51.036;17.058;2022-08-03T13:45:12;3.37;;;1.33;;
68310;SDS011;55157;51.036;17.058;2022-08-03T13:47:37;1.73;;;1.10;;
68310;SDS011;55157;51.036;17.058;2022-08-03T13:50:02;4.93;;;1.00;;
68310;SDS011;55157;51.036;17.058;2022-08-03T13:52:28;5.63;;;1.17;;
68310;SDS011;55157;51.036;17.058;2022-08-03T13:54:54;5.22;;;1.40;;
68310;SDS011;55157;51.036;17.058;2022-08-03T13:57:19;13.07;;;1.30;;
68310;SDS011;55157;51.036;17.058;2022-08-03T13:59:44;8.60;;;1.80;;
68310;SDS011;55157;51.036;17.058;2022-08-03T14:02:11;4.53;;;1.10;;
68310;SDS011;55157;51.036;17.058;2022-08-03T14:04:36;4.55;;;1.30;;
68310;SDS011;55157;51.036;17.058;2022-08-03T14:07:02;5.23;;;1.30;;
68310;SDS011;55157;51.036;17.058;2022-08-03T14:09:27;4.38;;;1.20;;
68310;SDS011;55157;51.036;17.058;2022-08-03T14:11:52;2.97;;;1.27;;
68310;SDS011;55157;51.036;17.058;2022-08-03T14:14:18;4.93;;;1.13;;
68310;SDS011;55157;51.036;17.058;2022-08-03T14:16:43;6.70;;;1.57;;
68310;SDS011;55157;51.036;17.058;2022-08-03T14:19:09;1.90;;;1.33;;
68310;SDS011;55157;51.036;17.058;2022-08-03T14:21:35;3.65;;;1.20;;
68310;SDS011;55157;51.036;17.058;2022-08-03T14:24:00;3.50;;;1.00;;
68310;SDS011;55157;51.036;17.058;2022-08-03T14:26:25;6.68;;;1.40;;
68310;SDS011;55157;51.036;17.058;2022-08-03T14:28:51;3.38;;;1.15;;
68310;SDS011;55157;51.036;17.058;2022-08-03T14:31:16;2.57;;;1.07;;
68310;SDS011;55157;51.036;17.058;2022-08-03T14:33:41;5.70;;;1.13;;
68310;SDS011;55157;51.036;17.058;2022-08-03T14:36:08;5.23;;;0.97;;